• Join FlightAware (Why Join?)
  • Login
  • US Flag 
03:03AM EDT


 

Airport Tracker/Info


-or-


 

Live Flight TrackerFlight Track Log ✈ N244A ✈ 13-Mar-2014 ✈ KBOS - KJFK

Flight Track Log - Related Links

Times and Time Zones

All times are in EDT time to prevent confusion due to time zone crossing. See the N244A flight status page for this flight to view local times or setup timezone preferences in your user account.

Time Position Orientation Groundspeed Altitude Reporting Facility
EDT Latitude Longitude Course Direction KTS MPH feet Rate Location/Type
03:19PM 42.3667 -71.0000 304° West 130 150 900  Level KA90
03:20PM 42.4167 -71.1000 304° West 276 318 5,400 3,540 Climbing KA90
03:21PM 42.3833 -71.1833 242° Southwest 325 374 9,900 3,000 Climbing KA90
03:24PM 42.1453 -71.0444 157° South 408 470 16,000 1,740 Climbing Boston Center
03:25PM 42.0481 -70.9575 146° Southeast 417 480 16,100  Climbing Boston Center
03:26PM 41.9561 -70.8639 143° Southeast 415 478 16,100  Level Boston Center
03:27PM 41.8589 -70.7783 147° Southeast 409 471 16,100 -60 Level Boston Center
03:28PM 41.7544 -70.8111 193° South 397 457 16,000  Descending Boston Center
03:29PM 41.6531 -70.8861 209° Southwest 392 451 16,100  Climbing Boston Center
03:30PM 41.5575 -70.9586 210° Southwest 395 455 16,100  Level Boston Center
03:31PM 41.4839 -71.0656 227° Southwest 391 450 16,100  Level Boston Center
03:32PM 41.4108 -71.1856 231° Southwest 389 448 16,100  Level Boston Center
03:33PM 41.3414 -71.2967 230° Southwest 389 448 16,100 -60 Level Boston Center
03:34PM 41.2722 -71.4083 231° Southwest 390 449 16,000 -180 Descending Boston Center
03:35PM 41.2017 -71.5233 231° Southwest 401 461 15,800  Descending Boston Center
03:36PM 41.1597 -71.6506 246° West 381 438 16,000 60 Climbing Boston Center
03:37PM 41.1403 -71.7975 260° West 380 437 16,000  Level Boston Center
03:38PM 41.1239 -71.9328 261° West 382 440 16,000  Level Boston Center
03:39PM 41.1056 -72.0706 260° West 381 438 16,000  Level Boston Center
03:40PM 41.0794 -72.2081 256° West 388 447 16,000 -540 Level Boston Center
03:41PM 41.0456 -72.3408 251° West 382 440 15,000 -960 Descending Boston Center
03:42PM 41.0131 -72.4689 251° West 374 430 14,100 -1,020 Descending Boston Center
03:43PM 40.9814 -72.5928 251° West 365 420 13,000 -1,080 Descending Boston Center
03:44PM 40.9467 -72.7347 252° West 350 403 12,000 -660 Descending Boston Center
03:45PM 40.9167 -72.8000 239° Southwest 320 368 12,000 -180 Level New York TRACON
03:46PM 40.8667 -72.8667 225° Southwest 297 342 11,800 -720 Descending New York TRACON
03:47PM 40.8000 -72.9333 217° Southwest 285 328 10,600 -1,200 Descending New York TRACON
03:48PM 40.7500 -73.0000 225° Southwest 271 312 9,400 -1,500 Descending New York TRACON
03:49PM 40.7167 -73.0833 242° Southwest 261 300 7,600 -1,800 Descending New York TRACON
03:50PM 40.6833 -73.1667 242° Southwest 264 304 5,900 -1,620 Descending New York TRACON
03:51PM 40.6500 -73.2500 242° Southwest 255 293 4,400 -1,020 Descending New York TRACON
03:52PM 40.6167 -73.3167 237° Southwest 227 261 3,900 -720 Descending New York TRACON
03:53PM 40.5833 -73.4000 242° Southwest 252 290 3,000 -480 Descending New York TRACON
03:54PM 40.5667 -73.4667 252° West 186 214 3,000  Level New York TRACON
03:55PM 40.5333 -73.5333 237° Southwest 202 232 3,000 -360 Level New York TRACON
03:56PM 40.5333 -73.5833 270° West 169 194 2,300 -600 Descending New York TRACON
03:57PM 40.5667 -73.6167 323° Northwest 116 133 1,900 -180 Descending New York TRACON
03:58PM 40.5667 -73.6500 270° West 98 113 2,000  Climbing New York TRACON
03:59PM 40.5833 -73.6833 303° West 101 116 1,900 -420 Descending New York TRACON
04:00PM 40.6000 -73.7167 303° West 100 115 1,200 -600 Descending New York TRACON
04:01PM 40.6167 -73.7500 303° West 101 116 700 -540 Descending New York TRACON